Bearskin Lake, Canada
Current Conditions -  °F | °C
As of 9:22 AM on Monday 24 Nov 2014 (Local Time) from CYTL Reporting Station
Light Snow Light Snow  
Wind Chill: -16°   Ceiling: 600
Heat Index: -2°   Visibility: 9mi
Dew Point: -6°   Wind: 7mph
Humidity: 85%   Direction: 360°N
Pressure: 29.76"   Gusts: NA
Location:  53.93°N, 90.98°W
Report Text: CYTL 241522Z AUTO 36006KT 9SM -SN BKN006 OVC021 M19/M21 A2976 RMK SLP103
Loading
Personal Weather Stations






























Interactive Weather Map New forecast layout! Learn more

10-Day Weather Forecast

Advertisements
Track Severe Weather on mobile